Time;durP1;ratioP1;P1;durP2;ratioP2;P2;SDS_P1;SDS_P2;PMS_P1;PMS_P2;Temp;Humidity;BMP_temperature;BMP_pressure;BME280_temperature;BME280_humidity;BME280_pressure;Samples;Min_cycle;Max_cycle;Signal;HPM_P1;HPM_P2
2023/09/22 00:01:54;;;;;;;9.43;6.43;;;15.90;69.80;;;;;;4798920;29;20205;-29
2023/09/22 00:04:21;;;;;;;10.07;6.33;;;15.90;69.90;;;;;;4798982;29;20213;-29
2023/09/22 00:06:48;;;;;;;9.43;5.83;;;15.90;70.00;;;;;;4812733;29;20248;-29
2023/09/22 00:09:18;;;;;;;9.27;5.80;;;15.90;70.00;;;;;;4797653;29;20216;-29
2023/09/22 00:11:45;;;;;;;8.00;5.50;;;15.90;70.00;;;;;;4798809;29;20232;-30
2023/09/22 00:14:13;;;;;;;11.27;6.00;;;15.90;70.00;;;;;;4812118;29;20325;-29
2023/09/22 00:16:41;;;;;;;10.17;5.87;;;15.90;70.00;;;;;;4798767;29;20231;-29
2023/09/22 00:19:08;;;;;;;13.07;5.80;;;15.90;70.10;;;;;;4799027;29;20213;-29
2023/09/22 00:21:36;;;;;;;8.63;5.37;;;15.90;70.10;;;;;;4797556;29;20207;-29
2023/09/22 00:24:04;;;;;;;7.67;4.93;;;15.90;70.10;;;;;;4812241;29;20309;-29
2023/09/22 00:26:32;;;;;;;8.40;4.57;;;15.90;70.20;;;;;;4812182;29;20699;-29
2023/09/22 00:29:01;;;;;;;8.17;4.63;;;15.90;70.20;;;;;;4782857;29;20209;-29
2023/09/22 00:31:28;;;;;;;7.37;4.07;;;15.90;70.30;;;;;;4812224;29;20262;-29
2023/09/22 00:33:56;;;;;;;7.60;3.90;;;15.90;70.30;;;;;;4799157;29;20224;-29
2023/09/22 00:36:25;;;;;;;8.63;3.67;;;15.90;70.30;;;;;;4800707;29;20205;-29
2023/09/22 00:38:55;;;;;;;9.77;4.17;;;16.00;70.40;;;;;;4802360;29;20606;-29
2023/09/22 00:41:22;;;;;;;10.07;3.97;;;15.90;70.30;;;;;;4802014;29;20205;-29
2023/09/22 00:43:52;;;;;;;7.87;3.47;;;16.00;70.40;;;;;;4815296;29;20240;-29
2023/09/22 00:46:25;;;;;;;6.17;3.80;;;16.00;70.40;;;;;;4802395;29;20212;-29
2023/09/22 00:48:56;;;;;;;9.37;3.43;;;16.00;70.40;;;;;;4800761;29;20613;-29
2023/09/22 00:51:26;;;;;;;6.57;3.67;;;16.00;70.40;;;;;;4785671;29;20213;-30
2023/09/22 00:53:56;;;;;;;7.40;3.40;;;16.00;70.40;;;;;;4801714;29;20229;-29
2023/09/22 00:56:24;;;;;;;8.23;3.40;;;16.00;70.40;;;;;;4785504;29;20244;-30
2023/09/22 00:58:52;;;;;;;7.03;3.40;;;16.00;70.40;;;;;;4799063;29;20319;-29
2023/09/22 01:01:25;;;;;;;8.87;3.57;;;16.00;70.40;;;;;;4799956;29;20215;-29
2023/09/22 01:03:55;;;;;;;7.90;3.10;;;16.00;70.40;;;;;;4801140;29;20329;-29
2023/09/22 01:06:25;;;;;;;6.70;3.20;;;16.00;70.40;;;;;;4801484;29;20327;-29
2023/09/22 01:08:56;;;;;;;8.07;3.27;;;16.00;70.40;;;;;;4815083;29;20228;-30
2023/09/22 01:11:23;;;;;;;7.70;3.07;;;16.00;70.40;;;;;;4815465;29;20340;-29
2023/09/22 01:13:51;;;;;;;8.07;2.87;;;16.00;70.40;;;;;;4801225;29;20309;-29
2023/09/22 01:16:18;;;;;;;7.00;3.10;;;16.00;70.40;;;;;;4784839;29;20299;-29
2023/09/22 01:18:45;;;;;;;6.83;2.70;;;16.00;70.50;;;;;;4801264;29;20253;-29
2023/09/22 01:21:14;;;;;;;5.40;2.63;;;16.00;70.50;;;;;;4799872;29;20232;-29
2023/09/22 01:23:41;;;;;;;8.33;3.17;;;16.00;70.50;;;;;;4799668;29;20647;-29
2023/09/22 01:26:11;;;;;;;6.53;2.83;;;16.00;70.50;;;;;;4801265;29;20748;-29
2023/09/22 01:28:43;;;;;;;7.23;3.00;;;16.00;70.50;;;;;;4814526;29;20336;-29
2023/09/22 01:31:15;;;;;;;5.83;3.03;;;16.00;70.50;;;;;;4801305;29;20293;-29
2023/09/22 01:33:45;;;;;;;8.50;3.07;;;16.00;70.60;;;;;;4801788;29;20224;-29
2023/09/22 01:36:14;;;;;;;8.43;2.80;;;16.00;70.60;;;;;;4801591;29;20221;-29
2023/09/22 01:38:41;;;;;;;7.90;2.70;;;16.00;70.60;;;;;;4784838;29;20775;-29
2023/09/22 01:41:11;;;;;;;6.47;2.87;;;16.00;70.60;;;;;;4799947;29;20216;-29
2023/09/22 01:43:39;;;;;;;7.13;3.30;;;16.00;70.60;;;;;;4799542;29;20332;-29
2023/09/22 01:46:06;;;;;;;5.03;3.20;;;16.00;70.70;;;;;;4801796;29;20219;-29
2023/09/22 01:48:36;;;;;;;8.10;3.20;;;16.00;70.60;;;;;;4800419;29;20280;-29
2023/09/22 01:51:06;;;;;;;8.47;3.00;;;16.00;70.70;;;;;;4814655;29;20209;-29
2023/09/22 01:53:35;;;;;;;5.87;3.03;;;16.00;70.70;;;;;;4814400;29;20344;-29
2023/09/22 01:56:02;;;;;;;6.20;2.90;;;16.00;70.60;;;;;;4799341;29;20599;-29
2023/09/22 01:58:34;;;;;;;6.77;3.10;;;16.00;70.60;;;;;;4800648;29;20247;-29
2023/09/22 02:01:06;;;;;;;10.53;3.40;;;16.00;70.70;;;;;;4800840;29;20201;-29
2023/09/22 02:03:33;;;;;;;5.17;2.80;;;16.00;70.70;;;;;;4800877;29;20653;-29
2023/09/22 02:06:04;;;;;;;8.63;2.90;;;16.00;70.70;;;;;;4799187;29;20209;-29
2023/09/22 02:08:34;;;;;;;8.50;2.67;;;16.00;70.70;;;;;;4798932;29;20496;-29
2023/09/22 02:11:01;;;;;;;8.53;2.83;;;16.00;70.80;;;;;;4800466;29;20251;-29
2023/09/22 02:13:29;;;;;;;6.33;2.63;;;16.00;70.80;;;;;;4783979;29;20273;-29
2023/09/22 02:15:56;;;;;;;9.73;2.90;;;16.00;70.80;;;;;;4799542;29;20220;-29
2023/09/22 02:18:23;;;;;;;6.87;2.60;;;16.00;70.80;;;;;;4799137;29;20233;-29
2023/09/22 02:20:52;;;;;;;5.67;2.20;;;16.00;70.90;;;;;;4799028;29;20295;-29
2023/09/22 02:23:19;;;;;;;5.43;2.50;;;16.00;70.90;;;;;;4799227;29;20219;-29
2023/09/22 02:25:49;;;;;;;7.63;2.87;;;16.00;70.90;;;;;;4813852;29;20659;-29
2023/09/22 02:28:20;;;;;;;6.83;3.10;;;16.00;70.90;;;;;;4800393;29;20245;-29
2023/09/22 02:30:47;;;;;;;7.85;3.08;;;16.00;71.00;;;;;;4800434;29;20760;-29
2023/09/22 02:33:16;;;;;;;6.10;3.10;;;16.10;71.10;;;;;;4800144;29;20596;-29
2023/09/22 02:35:46;;;;;;;4.00;2.03;;;16.10;71.10;;;;;;4800374;29;20957;-29
2023/09/22 02:38:13;;;;;;;6.00;2.40;;;16.10;71.10;;;;;;4798675;29;20293;-29
2023/09/22 02:40:43;;;;;;;6.47;2.27;;;16.10;70.90;;;;;;4798809;29;20213;-29
2023/09/22 02:43:10;;;;;;;6.53;2.60;;;16.10;70.90;;;;;;4799919;29;20909;-29
2023/09/22 02:45:40;;;;;;;4.80;2.20;;;16.10;71.10;;;;;;4798497;29;20248;-29
2023/09/22 02:48:10;;;;;;;7.20;2.17;;;16.10;71.00;;;;;;4799689;29;20217;-29
2023/09/22 02:50:40;;;;;;;3.37;2.13;;;16.10;71.10;;;;;;4798183;29;20204;-29
2023/09/22 02:53:09;;;;;;;7.30;2.50;;;16.10;71.20;;;;;;4798474;29;20217;-29
2023/09/22 02:55:39;;;;;;;8.07;2.00;;;16.10;71.10;;;;;;4813455;29;20667;-29
2023/09/22 02:58:08;;;;;;;7.83;2.10;;;16.10;71.10;;;;;;4799485;29;20683;-29
2023/09/22 03:00:36;;;;;;;3.50;2.07;;;16.10;71.00;;;;;;4798540;29;20209;-29
2023/09/22 03:03:11;;;;;;;9.73;2.33;;;16.10;71.00;;;;;;4783385;29;20236;-29
2023/09/22 03:05:39;;;;;;;9.60;2.10;;;16.10;71.10;;;;;;4799479;29;20211;-29
2023/09/22 03:08:09;;;;;;;4.97;2.07;;;16.10;71.10;;;;;;4813270;29;20325;-29
2023/09/22 03:10:41;;;;;;;4.20;2.00;;;16.10;71.10;;;;;;4799537;29;20217;-29
2023/09/22 03:13:09;;;;;;;9.17;2.33;;;16.10;71.10;;;;;;4799377;29;20217;-29
2023/09/22 03:15:39;;;;;;;4.97;1.93;;;16.10;71.00;;;;;;4799257;29;20217;-29
2023/09/22 03:18:06;;;;;;;3.50;1.50;;;16.10;71.10;;;;;;4799079;29;20237;-29
2023/09/22 03:20:33;;;;;;;6.10;2.00;;;16.10;71.00;;;;;;4782900;29;20296;-29
2023/09/22 03:23:03;;;;;;;9.93;1.97;;;16.10;71.10;;;;;;4799255;29;20317;-29
2023/09/22 03:25:30;;;;;;;5.30;2.00;;;16.00;71.00;;;;;;4812778;29;20692;-29
2023/09/22 03:27:58;;;;;;;3.50;1.90;;;16.00;71.00;;;;;;4797888;29;20239;-29
2023/09/22 03:30:27;;;;;;;5.75;1.80;;;16.00;71.00;;;;;;4799733;29;20645;-29
2023/09/22 03:32:56;;;;;;;6.60;2.20;;;16.00;71.10;;;;;;4799495;29;20308;-29
2023/09/22 03:35:23;;;;;;;3.90;1.60;;;16.00;71.20;;;;;;4799692;29;20245;-29
2023/09/22 03:37:56;;;;;;;5.27;1.70;;;16.00;71.10;;;;;;4799131;29;20735;-29
2023/09/22 03:40:32;;;;;;;9.00;2.00;;;16.00;71.20;;;;;;4812826;29;20208;-29
2023/09/22 03:43:01;;;;;;;6.67;1.90;;;16.00;71.20;;;;;;4799059;29;20255;-29
2023/09/22 03:45:30;;;;;;;3.53;1.40;;;16.00;71.20;;;;;;4799132;29;20212;-29
2023/09/22 03:47:59;;;;;;;5.07;1.63;;;16.00;71.20;;;;;;4812573;29;20228;-29
2023/09/22 03:50:29;;;;;;;4.97;1.77;;;16.00;71.30;;;;;;4798856;29;20236;-29
2023/09/22 03:52:57;;;;;;;7.17;1.70;;;16.00;71.20;;;;;;4797553;29;20213;-29
2023/09/22 03:55:24;;;;;;;3.53;1.20;;;16.00;71.20;;;;;;4812474;29;20221;-29
2023/09/22 03:57:52;;;;;;;6.43;1.53;;;16.00;71.20;;;;;;4797195;29;20297;-29
2023/09/22 04:00:27;;;;;;;5.53;1.67;;;16.00;71.20;;;;;;4798933;29;20203;-29
2023/09/22 04:02:57;;;;;;;4.17;1.57;;;16.00;71.30;;;;;;4798647;29;20242;-29
2023/09/22 04:05:28;;;;;;;3.37;1.10;;;16.00;71.20;;;;;;4812614;29;20216;-29
2023/09/22 04:07:57;;;;;;;5.53;1.60;;;16.00;71.20;;;;;;4798899;29;20233;-29
2023/09/22 04:10:24;;;;;;;4.27;1.60;;;16.00;71.30;;;;;;4799401;29;20265;-29
2023/09/22 04:12:56;;;;;;;5.73;1.40;;;16.00;71.30;;;;;;4801576;29;20261;-29
2023/09/22 04:15:26;;;;;;;6.57;1.77;;;16.00;71.30;;;;;;4802314;29;20577;-29
2023/09/22 04:17:53;;;;;;;4.33;1.50;;;16.00;71.30;;;;;;4802222;29;20297;-29
2023/09/22 04:20:32;;;;;;;9.20;1.70;;;16.00;71.30;;;;;;4800988;29;20706;-29
2023/09/22 04:22:59;;;;;;;4.70;1.20;;;16.00;71.30;;;;;;4802267;29;20213;-29
2023/09/22 04:25:34;;;;;;;5.07;1.10;;;16.00;71.30;;;;;;4800775;29;20235;-29
2023/09/22 04:28:17;;;;;;;3.80;1.30;;;15.90;71.20;;;;;;4800779;29;20320;-29
2023/09/22 04:30:45;;;;;;;7.30;2.10;;;15.90;71.20;;;;;;4802301;29;20724;-29
2023/09/22 04:33:13;;;;;;;6.27;1.40;;;15.90;71.20;;;;;;4802542;29;20676;-29
2023/09/22 04:35:42;;;;;;;3.90;1.53;;;15.90;71.20;;;;;;4815708;29;20296;-29
2023/09/22 04:38:13;;;;;;;7.40;1.50;;;15.90;71.20;;;;;;4800579;29;20591;-29
2023/09/22 04:40:41;;;;;;;5.37;1.70;;;15.90;71.30;;;;;;4802051;29;20252;-29
2023/09/22 04:43:12;;;;;;;3.57;1.37;;;15.90;71.20;;;;;;4801893;29;20702;-29
2023/09/22 04:45:45;;;;;;;7.03;1.30;;;15.90;71.30;;;;;;4785967;29;20695;-29
2023/09/22 04:48:16;;;;;;;2.77;1.20;;;15.80;71.20;;;;;;4802141;29;20702;-30
2023/09/22 04:50:43;;;;;;;3.80;1.70;;;15.80;71.30;;;;;;4801965;29;20228;-29
2023/09/22 04:53:10;;;;;;;3.77;1.30;;;15.80;72.00;;;;;;4801654;29;20197;-29
2023/09/22 04:55:38;;;;;;;3.87;1.67;;;15.80;71.30;;;;;;4801671;29;20209;-29
2023/09/22 04:58:08;;;;;;;10.37;1.70;;;15.80;71.30;;;;;;4801661;29;20605;-29
2023/09/22 05:00:38;;;;;;;6.93;1.73;;;15.80;71.30;;;;;;4801561;29;20239;-29
2023/09/22 05:03:07;;;;;;;5.03;1.40;;;15.70;71.20;;;;;;4800187;29;20205;-29
2023/09/22 05:05:37;;;;;;;5.07;1.60;;;15.80;71.30;;;;;;4801299;29;20290;-29
2023/09/22 05:08:09;;;;;;;4.43;2.00;;;15.70;71.20;;;;;;4800158;29;20217;-29
2023/09/22 05:10:36;;;;;;;3.47;1.57;;;15.70;71.30;;;;;;4814703;29;20209;-29
2023/09/22 05:13:06;;;;;;;3.90;1.70;;;15.70;71.20;;;;;;4800137;29;20266;-29
2023/09/22 05:15:39;;;;;;;4.00;1.60;;;15.70;71.30;;;;;;4801439;29;20316;-29
2023/09/22 05:18:06;;;;;;;2.83;1.27;;;15.70;71.20;;;;;;4799742;29;20243;-29
2023/09/22 05:20:33;;;;;;;7.00;1.57;;;15.60;71.20;;;;;;4801710;29;20209;-29
2023/09/22 05:23:03;;;;;;;3.80;1.50;;;15.60;71.20;;;;;;4801081;29;20274;-29
2023/09/22 05:25:31;;;;;;;5.60;1.70;;;15.60;71.20;;;;;;4815001;29;20210;-29
2023/09/22 05:27:59;;;;;;;7.20;1.40;;;15.60;71.30;;;;;;4801377;29;20213;-29
2023/09/22 05:30:29;;;;;;;5.73;1.57;;;15.60;71.30;;;;;;4800999;29;20215;-29
2023/09/22 05:32:57;;;;;;;2.83;1.37;;;15.60;71.30;;;;;;4801052;29;20212;-29
2023/09/22 05:35:26;;;;;;;4.90;1.50;;;15.60;71.30;;;;;;4784668;29;20220;-29
2023/09/22 05:37:56;;;;;;;5.43;1.33;;;15.50;71.20;;;;;;4801055;29;20237;-29
2023/09/22 05:40:23;;;;;;;4.60;1.37;;;15.50;71.20;;;;;;4801005;29;20205;-29
2023/09/22 05:42:50;;;;;;;4.67;1.17;;;15.50;71.20;;;;;;4799347;29;20716;-29
2023/09/22 05:45:17;;;;;;;4.77;1.60;;;15.50;71.30;;;;;;4814137;29;20228;-29
2023/09/22 05:47:45;;;;;;;8.43;1.60;;;15.40;71.20;;;;;;4801005;29;20292;-29
2023/09/22 05:50:17;;;;;;;6.27;1.37;;;15.40;71.20;;;;;;4799504;29;20244;-29
2023/09/22 05:52:44;;;;;;;4.57;1.60;;;15.40;71.20;;;;;;4800801;29;20336;-29
2023/09/22 05:55:12;;;;;;;6.37;1.43;;;15.40;71.20;;;;;;4814277;29;20359;-29
2023/09/22 05:57:40;;;;;;;2.93;1.00;;;15.40;71.20;;;;;;4800473;29;20205;-30
2023/09/22 06:00:15;;;;;;;4.53;1.43;;;15.30;71.20;;;;;;4800931;29;20695;-29
2023/09/22 06:02:53;;;;;;;4.00;1.20;;;15.30;71.20;;;;;;4801052;29;20209;-29
2023/09/22 06:05:24;;;;;;;5.30;1.57;;;15.30;71.30;;;;;;4784551;29;20269;-29
2023/09/22 06:07:55;;;;;;;3.53;0.93;;;15.30;71.20;;;;;;4800421;29;20221;-29
2023/09/22 06:10:24;;;;;;;4.43;1.40;;;15.30;71.20;;;;;;4798651;29;20684;-29
2023/09/22 06:12:51;;;;;;;3.40;1.10;;;15.20;71.10;;;;;;4813593;29;20205;-29
2023/09/22 06:15:19;;;;;;;6.50;1.47;;;15.20;71.20;;;;;;4799029;29;20745;-29
2023/09/22 06:17:50;;;;;;;8.37;1.13;;;15.20;71.20;;;;;;4783842;29;20237;-29
2023/09/22 06:20:20;;;;;;;5.30;1.40;;;15.20;71.30;;;;;;4813890;29;20286;-29
2023/09/22 06:22:50;;;;;;;4.67;1.90;;;15.20;71.20;;;;;;4813667;29;20247;-29
2023/09/22 06:25:18;;;;;;;8.33;1.30;;;15.20;71.30;;;;;;4798747;29;20229;-29
2023/09/22 06:27:46;;;;;;;2.50;1.10;;;15.20;71.30;;;;;;4798700;29;20212;-29
2023/09/22 06:30:19;;;;;;;4.07;0.97;;;15.20;71.30;;;;;;4799839;29;20266;-29
2023/09/22 06:32:48;;;;;;;4.03;1.60;;;15.20;71.40;;;;;;4799517;29;20295;-29
2023/09/22 06:35:15;;;;;;;5.87;1.37;;;15.20;71.40;;;;;;4799708;29;20240;-29
2023/09/22 06:37:45;;;;;;;2.40;1.23;;;15.20;71.40;;;;;;4799908;29;20209;-29
2023/09/22 06:40:13;;;;;;;3.17;1.13;;;15.20;71.40;;;;;;4800497;29;20294;-29
2023/09/22 06:42:45;;;;;;;7.00;1.50;;;15.20;71.80;;;;;;4798127;29;20601;-29
2023/09/22 06:45:16;;;;;;;4.43;1.13;;;15.20;71.40;;;;;;4799636;29;20215;-29
2023/09/22 06:47:46;;;;;;;6.30;0.97;;;15.20;71.50;;;;;;4799784;29;20767;-29
2023/09/22 06:50:17;;;;;;;2.30;1.20;;;15.20;71.60;;;;;;4813339;29;20295;-28
2023/09/22 06:52:45;;;;;;;2.87;1.20;;;15.20;72.20;;;;;;4799773;29;20213;-29
2023/09/22 06:55:14;;;;;;;4.73;1.10;;;15.20;71.50;;;;;;4783197;29;20228;-29
2023/09/22 06:57:42;;;;;;;6.50;1.37;;;15.20;71.50;;;;;;4799467;29;20213;-29
2023/09/22 07:00:18;;;;;;;7.20;1.33;;;15.20;71.50;;;;;;4798029;29;20232;-28
2023/09/22 07:02:49;;;;;;;4.87;1.20;;;15.20;71.60;;;;;;4798385;29;20649;-29
2023/09/22 07:05:19;;;;;;;3.40;1.30;;;15.30;71.60;;;;;;4798024;29;20209;-29
2023/09/22 07:07:52;;;;;;;4.03;1.50;;;15.30;71.60;;;;;;4799243;29;20621;-29
2023/09/22 07:10:20;;;;;;;2.83;1.40;;;15.30;71.70;;;;;;4799485;29;20308;-29
2023/09/22 07:12:48;;;;;;;3.67;1.27;;;15.30;71.70;;;;;;4799584;29;20434;-29
2023/09/22 07:15:16;;;;;;;3.43;1.00;;;15.30;71.60;;;;;;4799496;29;20245;-29
2023/09/22 07:17:46;;;;;;;3.80;1.20;;;15.30;71.60;;;;;;4813239;29;20533;-29
2023/09/22 07:20:14;;;;;;;4.23;1.17;;;15.40;71.70;;;;;;4799070;29;20649;-29
2023/09/22 07:22:43;;;;;;;2.70;1.10;;;15.40;71.70;;;;;;4812699;29;20241;-29
2023/09/22 07:25:14;;;;;;;5.30;1.10;;;15.40;71.70;;;;;;4799149;29;20221;-29
2023/09/22 07:27:45;;;;;;;8.10;1.30;;;15.40;71.60;;;;;;4799202;29;20209;-29
2023/09/22 07:30:13;;;;;;;3.60;1.07;;;15.40;71.70;;;;;;4797749;29;20217;-29
2023/09/22 07:32:40;;;;;;;4.90;1.07;;;15.40;72.50;;;;;;4812697;29;20263;-29
2023/09/22 07:35:08;;;;;;;3.50;1.20;;;15.40;71.70;;;;;;4799023;29;20343;-29
2023/09/22 07:37:36;;;;;;;3.97;1.20;;;15.40;71.60;;;;;;4782450;29;20209;-29
2023/09/22 07:40:08;;;;;;;5.13;1.20;;;15.40;71.70;;;;;;4799032;29;20236;-30
2023/09/22 07:42:41;;;;;;;3.23;1.13;;;15.50;71.90;;;;;;4799125;29;20208;-31
2023/09/22 07:45:11;;;;;;;3.70;1.40;;;15.50;71.70;;;;;;4812272;29;20228;-29
2023/09/22 07:47:38;;;;;;;6.10;1.50;;;15.50;71.80;;;;;;4799007;29;20202;-29
2023/09/22 07:50:06;;;;;;;3.92;1.00;;;15.50;71.80;;;;;;4782307;29;20225;-29
2023/09/22 07:52:36;;;;;;;1.93;1.00;;;15.60;71.80;;;;;;4797595;29;20257;-29
2023/09/22 07:55:07;;;;;;;5.90;1.40;;;15.60;71.90;;;;;;4797722;29;20260;-29
2023/09/22 07:57:36;;;;;;;5.23;1.07;;;15.60;71.90;;;;;;4798997;29;20673;-29
2023/09/22 08:00:06;;;;;;;4.87;1.30;;;15.60;71.90;;;;;;4798622;29;20237;-29
2023/09/22 08:02:38;;;;;;;4.77;1.10;;;15.60;71.80;;;;;;4797197;29;20209;-29
2023/09/22 08:05:06;;;;;;;1.90;1.30;;;15.70;72.00;;;;;;4797362;29;20278;-29
2023/09/22 08:07:33;;;;;;;2.67;1.00;;;15.70;72.10;;;;;;4798937;29;20205;-29
2023/09/22 08:10:00;;;;;;;5.67;1.10;;;15.70;72.10;;;;;;4812366;29;20723;-29
2023/09/22 08:12:28;;;;;;;2.03;1.10;;;15.80;72.20;;;;;;4798678;29;20209;-29
2023/09/22 08:14:57;;;;;;;2.07;0.90;;;15.80;72.20;;;;;;4782560;29;20344;-29
2023/09/22 08:17:24;;;;;;;3.53;1.23;;;15.90;72.10;;;;;;4782481;29;20240;-29
2023/09/22 08:19:53;;;;;;;3.60;0.90;;;15.90;72.10;;;;;;4798477;29;20317;-29
2023/09/22 08:22:25;;;;;;;3.73;0.97;;;15.90;72.10;;;;;;4782240;29;20290;-29
2023/09/22 08:24:53;;;;;;;3.73;1.00;;;15.90;72.00;;;;;;4798748;29;20201;-29
2023/09/22 08:27:22;;;;;;;5.93;1.33;;;16.00;71.90;;;;;;4797187;29;20213;-29
2023/09/22 08:29:50;;;;;;;2.70;1.17;;;16.00;71.90;;;;;;4798366;29;20768;-29
2023/09/22 08:32:17;;;;;;;3.97;1.23;;;16.00;71.90;;;;;;4782914;29;20237;-29
2023/09/22 08:34:47;;;;;;;3.13;1.20;;;16.00;71.90;;;;;;4812071;29;20225;-30
2023/09/22 08:37:16;;;;;;;7.07;1.10;;;16.10;71.90;;;;;;4812187;29;20243;-29
2023/09/22 08:39:44;;;;;;;4.57;0.90;;;16.10;71.90;;;;;;4798490;29;20282;-29
2023/09/22 08:42:12;;;;;;;5.38;1.10;;;16.10;71.80;;;;;;4796919;29;20692;-29
2023/09/22 08:44:39;;;;;;;4.93;1.00;;;16.10;72.00;;;;;;4798291;29;20808;-29
2023/09/22 08:47:07;;;;;;;8.07;1.40;;;16.10;71.90;;;;;;4796742;29;20772;-29
2023/09/22 08:49:34;;;;;;;4.63;1.10;;;16.20;72.00;;;;;;4812110;29;20217;-29
2023/09/22 08:52:02;;;;;;;3.90;0.90;;;16.20;72.00;;;;;;4812022;29;20721;-29
2023/09/22 08:54:29;;;;;;;5.27;1.10;;;16.20;72.00;;;;;;4812068;29;20209;-30
2023/09/22 08:56:57;;;;;;;5.47;1.27;;;16.30;72.10;;;;;;4813122;29;20265;-29
2023/09/22 08:59:24;;;;;;;5.63;1.30;;;16.30;72.10;;;;;;4801624;29;20799;-29
2023/09/22 09:01:51;;;;;;;8.00;1.40;;;16.30;72.00;;;;;;4785663;29;20238;-29
2023/09/22 09:04:32;;;;;;;2.97;1.40;;;16.40;72.00;;;;;;4800056;29;20215;-29
2023/09/22 09:07:02;;;;;;;6.60;1.47;;;16.40;72.00;;;;;;4800250;29;20759;-28
2023/09/22 09:09:43;;;;;;;5.70;1.40;;;16.40;72.00;;;;;;4801734;29;20659;-29
2023/09/22 09:12:12;;;;;;;4.43;1.57;;;16.40;72.80;;;;;;4801238;29;20232;-29
2023/09/22 09:14:46;;;;;;;3.80;1.40;;;16.50;71.90;;;;;;4801302;29;20712;-29
2023/09/22 09:17:22;;;;;;;2.67;1.30;;;16.50;72.00;;;;;;4801269;29;20220;-29
2023/09/22 09:20:02;;;;;;;2.87;1.03;;;16.50;72.00;;;;;;4799908;29;20789;-29
2023/09/22 09:22:37;;;;;;;2.97;1.30;;;16.60;72.20;;;;;;4801020;29;20224;-29
2023/09/22 09:25:09;;;;;;;6.17;1.40;;;16.60;72.00;;;;;;4800916;29;20216;-29
2023/09/22 09:27:39;;;;;;;2.77;1.00;;;16.60;72.00;;;;;;4801006;29;20217;-28
2023/09/22 09:30:08;;;;;;;3.60;1.00;;;16.70;71.80;;;;;;4800821;29;20590;-28
2023/09/22 09:32:38;;;;;;;3.77;0.90;;;16.70;71.70;;;;;;4799737;29;20285;-28
2023/09/22 09:35:05;;;;;;;1.87;1.23;;;16.70;71.50;;;;;;4799706;29;20308;-28
2023/09/22 09:37:33;;;;;;;2.93;0.77;;;16.70;71.60;;;;;;4784477;29;20297;-28
2023/09/22 09:40:00;;;;;;;4.60;1.17;;;16.70;71.40;;;;;;4800888;29;20657;-28
2023/09/22 09:42:27;;;;;;;2.60;0.83;;;16.80;71.60;;;;;;4800627;29;20220;-28
2023/09/22 09:44:57;;;;;;;2.87;0.97;;;16.80;71.60;;;;;;4799409;29;20835;-28
2023/09/22 09:47:26;;;;;;;5.20;1.05;;;16.80;71.50;;;;;;4799569;29;20289;-28
2023/09/22 09:49:58;;;;;;;2.67;1.10;;;16.80;71.60;;;;;;4813720;29;20519;-28
2023/09/22 09:52:44;;;;;;;4.83;1.20;;;16.90;71.70;;;;;;4800496;29;20660;-28
2023/09/22 09:55:15;;;;;;;4.40;1.02;;;16.90;71.70;;;;;;4800405;29;20274;-28
2023/09/22 09:57:43;;;;;;;3.13;1.20;;;16.90;71.70;;;;;;4814100;29;20248;-28
2023/09/22 10:00:18;;;;;;;1.43;0.60;;;17.00;71.80;;;;;;4800505;29;20235;-28
2023/09/22 10:02:51;;;;;;;2.87;1.03;;;17.00;71.80;;;;;;4785508;29;20208;-28
2023/09/22 10:05:21;;;;;;;5.45;1.00;;;17.10;71.50;;;;;;4798808;29;20281;-28
2023/09/22 10:07:50;;;;;;;4.60;1.10;;;17.10;71.60;;;;;;4799074;29;20501;-28
2023/09/22 10:10:21;;;;;;;5.40;0.90;;;17.20;71.60;;;;;;4813385;29;20664;-28
2023/09/22 10:12:49;;;;;;;3.20;0.83;;;17.20;71.60;;;;;;4800356;29;20301;-28
2023/09/22 10:15:48;;;;;;;2.90;1.10;;;17.20;71.60;;;;;;4798826;29;20217;-28
2023/09/22 10:18:19;;;;;;;2.87;0.93;;;17.30;71.60;;;;;;4800292;29;20566;-28
2023/09/22 10:20:47;;;;;;;3.20;0.80;;;17.30;71.50;;;;;;4800221;29;20232;-28
2023/09/22 10:23:18;;;;;;;4.60;1.05;;;17.30;71.50;;;;;;4798776;29;20775;-28
2023/09/22 10:26:04;;;;;;;2.58;0.80;;;17.30;71.30;;;;;;4800024;29;20213;-28
2023/09/22 10:28:35;;;;;;;3.47;0.70;;;17.30;70.80;;;;;;4813003;29;20280;-28
2023/09/22 10:31:03;;;;;;;2.90;1.00;;;17.30;71.10;;;;;;4813384;29;20264;-28
2023/09/22 10:33:32;;;;;;;2.67;0.90;;;17.30;71.10;;;;;;4798266;29;20205;-28
2023/09/22 10:36:04;;;;;;;1.83;0.80;;;17.30;70.90;;;;;;4799553;29;20210;-28
2023/09/22 10:38:52;;;;;;;1.77;0.87;;;17.30;70.80;;;;;;4799771;29;20646;-28
2023/09/22 10:41:19;;;;;;;3.33;1.03;;;17.40;70.90;;;;;;4799455;29;20895;-28
2023/09/22 10:43:58;;;;;;;3.63;1.00;;;17.40;70.90;;;;;;4799610;29;20245;-28
2023/09/22 10:46:26;;;;;;;4.03;0.90;;;17.40;70.90;;;;;;4813026;29;20208;-28
2023/09/22 10:48:53;;;;;;;3.13;0.90;;;17.40;70.90;;;;;;4799694;29;20229;-28
2023/09/22 10:51:22;;;;;;;3.80;0.90;;;17.40;70.90;;;;;;4799480;29;20220;-28
2023/09/22 10:53:59;;;;;;;3.70;0.90;;;17.40;71.00;;;;;;4798197;29;20302;-28
2023/09/22 10:56:28;;;;;;;2.23;0.77;;;17.50;71.00;;;;;;4783178;29;20916;-28
2023/09/22 10:58:59;;;;;;;2.83;0.75;;;17.50;70.70;;;;;;4813312;29;20759;-28
2023/09/22 11:01:41;;;;;;;3.93;1.30;;;17.50;70.70;;;;;;4813605;29;20808;-28
2023/09/22 11:04:10;;;;;;;2.13;0.88;;;17.60;70.80;;;;;;4813433;29;20697;-28
2023/09/22 11:06:47;;;;;;;3.40;0.80;;;17.60;70.90;;;;;;4797975;29;20312;-28
2023/09/22 11:09:15;;;;;;;4.43;0.80;;;17.60;70.70;;;;;;4799013;29;20225;-28
2023/09/22 11:11:45;;;;;;;7.97;1.30;;;17.60;70.80;;;;;;4799309;29;20213;-28
2023/09/22 11:14:12;;;;;;;3.40;1.13;;;17.70;70.80;;;;;;4797990;29;20216;-28
2023/09/22 11:16:49;;;;;;;4.57;1.10;;;17.70;70.80;;;;;;4797772;29;20240;-28
2023/09/22 11:19:21;;;;;;;3.22;1.02;;;17.80;70.90;;;;;;4799192;29;20219;-28
2023/09/22 11:21:48;;;;;;;4.05;1.05;;;17.80;70.90;;;;;;4799055;29;20764;-28
2023/09/22 11:24:17;;;;;;;3.10;1.00;;;17.90;70.90;;;;;;4799036;29;20308;-27
2023/09/22 11:26:45;;;;;;;5.87;1.13;;;17.90;70.80;;;;;;4798901;29;20294;-28
2023/09/22 11:29:17;;;;;;;4.87;1.40;;;18.00;70.90;;;;;;4812630;29;20205;-28
2023/09/22 11:31:49;;;;;;;3.27;1.17;;;18.00;70.80;;;;;;4797496;29;20217;-27
2023/09/22 11:34:25;;;;;;;3.08;0.90;;;18.10;70.80;;;;;;4798811;29;20227;-28
2023/09/22 11:36:53;;;;;;;5.68;1.40;;;18.10;70.80;;;;;;4797642;29;20208;-28
2023/09/22 11:39:29;;;;;;;5.57;1.10;;;18.10;70.90;;;;;;4799311;29;20209;-28
2023/09/22 11:42:01;;;;;;;3.77;1.03;;;18.20;70.80;;;;;;4799049;29;20224;-28
2023/09/22 11:44:31;;;;;;;2.08;1.00;;;18.20;70.80;;;;;;4798656;29;20248;-28
2023/09/22 11:46:59;;;;;;;2.08;0.88;;;18.30;70.70;;;;;;4782780;29;20824;-28
2023/09/22 11:49:38;;;;;;;3.40;1.40;;;18.30;70.70;;;;;;4797707;29;20308;-28
2023/09/22 11:52:11;;;;;;;6.03;1.60;;;18.40;70.70;;;;;;4798822;29;20238;-28
2023/09/22 11:54:39;;;;;;;2.28;0.77;;;18.40;70.70;;;;;;4797230;29;20213;-28
2023/09/22 11:57:08;;;;;;;3.75;1.13;;;18.40;70.70;;;;;;4782167;29;20583;-29
2023/09/22 11:59:40;;;;;;;2.50;1.02;;;18.40;70.70;;;;;;4798907;29;20217;-28
2023/09/22 12:02:07;;;;;;;6.22;1.27;;;18.50;70.70;;;;;;4797240;29;20424;-28
2023/09/22 12:04:37;;;;;;;2.42;1.05;;;18.50;70.70;;;;;;4797276;29;20201;-28
2023/09/22 12:07:06;;;;;;;2.78;0.80;;;18.50;70.60;;;;;;4798747;29;20220;-28
2023/09/22 12:09:38;;;;;;;4.32;1.40;;;18.50;70.50;;;;;;4798926;29;20288;-28
2023/09/22 12:12:05;;;;;;;4.00;1.23;;;18.50;70.40;;;;;;4798727;29;20252;-28
2023/09/22 12:14:32;;;;;;;5.40;0.90;;;18.60;70.50;;;;;;4798621;29;20209;-28
2023/09/22 12:17:00;;;;;;;4.22;1.17;;;18.60;70.40;;;;;;4798682;29;20546;-28
2023/09/22 12:19:27;;;;;;;3.63;1.00;;;18.60;70.30;;;;;;4812346;29;20515;-28
2023/09/22 12:21:59;;;;;;;3.40;0.93;;;18.60;70.30;;;;;;4797241;29;20212;-28
2023/09/22 12:24:27;;;;;;;4.95;1.30;;;18.60;70.20;;;;;;4798880;29;20300;-32
2023/09/22 12:26:54;;;;;;;5.03;1.25;;;18.60;70.20;;;;;;4798428;29;20610;-32
2023/09/22 12:29:21;;;;;;;6.07;1.08;;;18.60;70.20;;;;;;4811808;29;20212;-32
2023/09/22 12:31:53;;;;;;;4.72;1.08;;;18.60;70.10;;;;;;4813210;29;20652;-32
2023/09/22 12:34:25;;;;;;;4.50;1.20;;;18.60;70.00;;;;;;4802048;29;20229;-32
2023/09/22 12:36:53;;;;;;;3.75;1.10;;;18.60;69.90;;;;;;4802076;29;20247;-32
2023/09/22 12:39:22;;;;;;;5.32;0.95;;;18.60;70.00;;;;;;4785560;29;20217;-32
2023/09/22 12:41:50;;;;;;;4.25;1.20;;;18.60;70.10;;;;;;4800450;29;20384;-32
2023/09/22 12:44:17;;;;;;;3.10;1.17;;;18.60;70.20;;;;;;4815279;29;20233;-32
2023/09/22 12:46:44;;;;;;;2.85;1.27;;;18.60;70.20;;;;;;4800470;29;20262;-32
2023/09/22 12:49:16;;;;;;;3.67;1.00;;;18.70;70.20;;;;;;4785446;29;20310;-32
2023/09/22 12:51:44;;;;;;;5.97;1.00;;;18.70;70.20;;;;;;4801678;29;20213;-32
2023/09/22 12:54:14;;;;;;;4.47;1.00;;;18.70;70.20;;;;;;4815118;29;20331;-32
2023/09/22 12:56:41;;;;;;;4.63;1.00;;;18.70;70.10;;;;;;4799992;29;20703;-32
2023/09/22 12:59:08;;;;;;;4.75;1.25;;;18.70;70.10;;;;;;4815049;29;20523;-32